createdAt,value
2017-07-18T00:02:03.646Z,50.6
2017-07-18T00:07:03.802Z,50.7
2017-07-18T00:12:04.029Z,50.6
2017-07-18T00:17:04.062Z,50.5
2017-07-18T00:22:03.540Z,50.5
2017-07-18T00:27:03.500Z,50.4
2017-07-18T00:32:03.493Z,50.4
2017-07-18T00:37:03.917Z,50.5
2017-07-18T00:42:03.234Z,50.5
2017-07-18T00:47:03.473Z,50.5
2017-07-18T00:52:03.424Z,50.4
2017-07-18T00:57:03.574Z,50.5
2017-07-18T01:02:03.893Z,50.5
2017-07-18T01:07:03.265Z,50.4
2017-07-18T01:12:03.536Z,50.4
2017-07-18T01:17:03.773Z,50.4
2017-07-18T01:22:03.918Z,50.4
2017-07-18T01:27:03.300Z,50.4
2017-07-18T01:32:03.540Z,50.5
2017-07-18T01:37:03.725Z,50.5
2017-07-18T01:42:03.040Z,50.5
2017-07-18T01:47:03.408Z,50.3
2017-07-18T01:52:03.155Z,50.4
2017-07-18T01:57:03.338Z,50.4
2017-07-18T02:02:03.628Z,50.4
2017-07-18T02:07:03.911Z,50.3
2017-07-18T02:12:03.464Z,50.3
2017-07-18T02:17:03.563Z,50.3
2017-07-18T02:22:03.854Z,50.3
2017-07-18T02:27:03.965Z,50.3
2017-07-18T02:32:03.314Z,50.2
2017-07-18T02:37:03.459Z,50.2
2017-07-18T02:42:03.619Z,50.3
2017-07-18T02:47:04.397Z,50.3
2017-07-18T02:52:03.362Z,50.1
2017-07-18T02:57:03.582Z,50.1
2017-07-18T03:02:11.821Z,50.0
2017-07-18T03:07:03.387Z,50.0
2017-07-18T03:12:03.079Z,50.0
2017-07-18T03:22:03.274Z,50.0
2017-07-18T03:27:03.524Z,50.0
2017-07-18T03:32:22.140Z,50.1
2017-07-18T03:37:03.905Z,50.1
2017-07-18T03:42:03.621Z,50.1
2017-07-18T03:47:27.967Z,50.0
2017-07-18T03:52:03.634Z,50.0
2017-07-18T03:57:03.902Z,50.0
2017-07-18T04:02:21.928Z,50.1
2017-07-18T04:07:03.836Z,50.3
2017-07-18T04:12:03.367Z,50.1
2017-07-18T04:17:24.549Z,50.1
2017-07-18T04:22:03.219Z,50.1
2017-07-18T04:27:03.565Z,50.1
2017-07-18T04:32:22.389Z,50.1
2017-07-18T04:37:03.317Z,49.9
2017-07-18T04:42:03.706Z,49.6
2017-07-18T04:47:23.556Z,49.4
2017-07-18T04:52:03.577Z,49.4
2017-07-18T04:57:03.909Z,49.3
2017-07-18T05:02:26.057Z,49.2
2017-07-18T05:07:03.762Z,49.2
2017-07-18T05:12:03.316Z,49.1
2017-07-18T05:17:26.846Z,49.1
2017-07-18T05:22:03.634Z,49.0
2017-07-18T05:27:03.982Z,49.0
2017-07-18T05:32:27.252Z,48.9
2017-07-18T05:37:03.733Z,48.9
2017-07-18T05:42:03.132Z,48.9
2017-07-18T05:47:28.525Z,48.9
2017-07-18T05:52:03.216Z,48.9
2017-07-18T05:57:03.674Z,49.1
2017-07-18T06:02:21.582Z,49.2
2017-07-18T06:07:03.548Z,49.2
2017-07-18T06:12:03.963Z,49.3
2017-07-18T06:17:29.287Z,49.1
2017-07-18T06:22:03.769Z,49.1
2017-07-18T06:27:03.138Z,49.2
2017-07-18T06:32:23.620Z,49.4
2017-07-18T06:37:03.783Z,49.4
2017-07-18T06:42:03.164Z,49.5
2017-07-18T06:47:28.496Z,49.5
2017-07-18T06:52:03.675Z,49.5
2017-07-18T06:57:03.120Z,49.5
2017-07-18T07:02:23.783Z,49.5
2017-07-18T07:07:03.906Z,50.2
2017-07-18T07:12:03.548Z,49.7
2017-07-18T07:17:24.371Z,49.7
2017-07-18T07:22:03.358Z,49.7
2017-07-18T07:27:03.789Z,49.6
2017-07-18T07:32:27.793Z,50.1
2017-07-18T07:37:03.426Z,50.1
2017-07-18T07:42:03.805Z,50.0
2017-07-18T07:47:28.165Z,50.0
2017-07-18T07:52:03.712Z,50.1
2017-07-18T07:57:03.023Z,50.5
2017-07-18T08:02:27.949Z,50.5
2017-07-18T08:07:03.767Z,50.6
2017-07-18T08:12:03.328Z,50.9
2017-07-18T08:17:24.186Z,50.8
2017-07-18T08:22:03.285Z,50.8
2017-07-18T08:27:03.696Z,50.9
2017-07-18T08:32:20.194Z,51.3
2017-07-18T08:37:03.836Z,51.3
2017-07-18T08:42:03.199Z,51.3
2017-07-18T08:47:28.508Z,51.2
2017-07-18T08:52:03.905Z,51.2
2017-07-18T08:57:03.286Z,51.5
2017-07-18T09:02:27.508Z,51.5
2017-07-18T09:07:03.906Z,51.7
2017-07-18T09:12:03.581Z,51.6
2017-07-18T09:17:25.372Z,51.6
2017-07-18T09:22:03.370Z,52.0
2017-07-18T09:27:03.814Z,52.0
2017-07-18T09:32:27.523Z,52.0
2017-07-18T09:37:03.242Z,52.0
2017-07-18T09:42:03.675Z,52.1
2017-07-18T09:47:28.032Z,52.3
2017-07-18T09:52:03.854Z,52.6
2017-07-18T09:57:03.390Z,52.5
2017-07-18T10:02:27.682Z,52.4
2017-07-18T10:07:03.345Z,52.3
2017-07-18T10:12:03.742Z,52.5
2017-07-18T10:17:24.189Z,52.2
2017-07-18T10:22:03.478Z,52.4
2017-07-18T10:27:03.807Z,52.7
2017-07-18T10:32:36.121Z,52.2
2017-07-18T10:37:03.948Z,52.4
2017-07-18T10:42:03.197Z,52.4
2017-07-18T10:47:28.429Z,52.4
2017-07-18T10:52:03.741Z,52.9
2017-07-18T10:57:03.141Z,52.4
2017-07-18T11:02:21.981Z,52.9
2017-07-18T11:07:03.744Z,52.9
2017-07-18T11:12:03.231Z,53.1
2017-07-18T11:17:28.642Z,53.0
2017-07-18T11:22:03.969Z,53.2
2017-07-18T11:27:03.825Z,52.1
2017-07-18T11:32:25.382Z,51.6
2017-07-18T11:37:03.237Z,51.5
2017-07-18T11:42:03.640Z,52.1
2017-07-18T11:47:24.914Z,52.9
2017-07-18T11:52:03.691Z,52.0
2017-07-18T11:57:03.077Z,51.6
2017-07-18T12:02:33.083Z,51.7
2017-07-18T12:07:03.466Z,51.5
2017-07-18T12:12:03.972Z,51.5
2017-07-18T12:17:28.541Z,51.6
2017-07-18T12:22:03.263Z,51.2
2017-07-18T12:27:03.792Z,51.2
2017-07-18T12:32:23.248Z,51.6
2017-07-18T12:37:03.806Z,51.8
2017-07-18T12:42:03.209Z,51.4
2017-07-18T12:47:24.952Z,51.7
2017-07-18T12:52:03.124Z,51.7
2017-07-18T12:57:03.513Z,51.7
2017-07-18T13:02:24.015Z,51.9
2017-07-18T13:07:03.281Z,52.1
2017-07-18T13:12:03.785Z,52.0
2017-07-18T13:17:28.507Z,51.5
2017-07-18T13:22:03.132Z,51.3
2017-07-18T13:27:03.586Z,51.3
2017-07-18T13:32:28.538Z,51.4
2017-07-18T13:37:03.452Z,51.4
2017-07-18T13:42:03.812Z,51.2
2017-07-18T13:47:28.161Z,51.7
2017-07-18T13:52:03.032Z,52.6
2017-07-18T13:57:03.448Z,52.6
2017-07-18T14:02:24.083Z,52.1
2017-07-18T14:07:03.810Z,51.8
2017-07-18T14:12:03.395Z,51.9
2017-07-18T14:17:24.344Z,51.1
2017-07-18T14:22:03.970Z,51.1
2017-07-18T14:27:03.358Z,51.5
2017-07-18T14:32:25.951Z,51.3
2017-07-18T14:37:03.587Z,51.3
2017-07-18T14:42:03.900Z,48.7
2017-07-18T14:47:28.172Z,47.0
2017-07-18T14:52:03.893Z,47.0
2017-07-18T14:57:03.317Z,46.0
2017-07-18T15:02:23.930Z,44.9
2017-07-18T15:07:03.691Z,48.2
2017-07-18T15:12:03.141Z,48.8
2017-07-18T15:17:25.227Z,49.6
2017-07-18T15:22:03.873Z,41.4
2017-07-18T15:27:03.237Z,41.4
2017-07-18T15:32:25.005Z,43.8
2017-07-18T15:37:03.604Z,43.8
2017-07-18T15:42:03.857Z,44.1
2017-07-18T15:47:24.100Z,42.4
2017-07-18T15:52:03.127Z,41.9
2017-07-18T15:57:03.506Z,41.1
2017-07-18T16:02:21.100Z,39.6
2017-07-18T16:07:03.621Z,37.7
2017-07-18T16:12:03.991Z,37.7
2017-07-18T16:17:21.690Z,39.7
2017-07-18T16:22:03.869Z,44.3
2017-07-18T16:27:03.189Z,44.3
2017-07-18T16:37:03.458Z,41.0
2017-07-18T16:42:03.747Z,39.9
2017-07-18T16:47:21.999Z,46.4
2017-07-18T16:52:03.429Z,48.1
2017-07-18T16:57:03.728Z,48.1
2017-07-18T17:02:22.539Z,44.3
2017-07-18T17:07:03.732Z,45.5
2017-07-18T17:12:03.246Z,45.5
2017-07-18T17:22:03.595Z,41.8
2017-07-18T17:27:03.834Z,39.3
2017-07-18T17:32:19.195Z,39.3
2017-07-18T17:37:03.958Z,39.3
2017-07-18T17:42:03.090Z,41.3
2017-07-18T17:47:16.462Z,40.3
2017-07-18T17:52:03.660Z,40.3
2017-07-18T17:57:03.905Z,40.5
2017-07-18T18:02:21.720Z,42.4
2017-07-18T18:07:03.104Z,47.2
2017-07-18T18:12:03.639Z,47.3
2017-07-18T18:17:24.461Z,50.1
2017-07-18T18:22:03.880Z,50.1
2017-07-18T18:27:03.268Z,50.7
2017-07-18T18:32:23.990Z,50.7
2017-07-18T18:37:03.743Z,50.7
2017-07-18T18:42:03.051Z,50.7
2017-07-18T18:47:24.967Z,50.5
2017-07-18T18:52:03.545Z,50.5
2017-07-18T18:57:03.850Z,51.0
2017-07-18T19:02:22.016Z,50.9
2017-07-18T19:07:03.230Z,51.0
2017-07-18T19:12:03.770Z,51.0
2017-07-18T19:17:24.824Z,51.3
2017-07-18T19:22:03.875Z,51.2
2017-07-18T19:27:03.203Z,51.2
2017-07-18T19:32:23.590Z,50.7
2017-07-18T19:37:03.975Z,50.8
2017-07-18T19:42:03.314Z,51.0
2017-07-18T19:47:15.813Z,50.7
2017-07-18T19:52:03.156Z,50.8
2017-07-18T19:57:03.400Z,50.8
2017-07-18T20:02:11.276Z,50.2
2017-07-18T20:07:03.754Z,50.2
2017-07-18T20:12:03.392Z,50.2
2017-07-18T20:17:07.832Z,50.3
2017-07-18T20:22:03.130Z,49.9
2017-07-18T20:27:03.415Z,49.9
2017-07-18T20:32:04.181Z,50.1
2017-07-18T20:37:03.984Z,50.2
2017-07-18T20:42:03.327Z,50.2
2017-07-18T20:47:03.843Z,50.2
2017-07-18T20:52:03.857Z,49.9
2017-07-18T20:57:03.270Z,50.1
2017-07-18T21:02:03.918Z,50.0
2017-07-18T21:07:03.892Z,49.5
2017-07-18T21:12:03.401Z,49.5
2017-07-18T21:17:03.946Z,49.5
2017-07-18T21:22:03.966Z,49.6
2017-07-18T21:27:03.289Z,49.6
2017-07-18T21:32:03.713Z,49.9
2017-07-18T21:37:03.836Z,49.8
2017-07-18T21:42:03.198Z,49.7
2017-07-18T21:47:03.755Z,49.7
2017-07-18T21:52:03.732Z,49.6
2017-07-18T21:57:03.058Z,49.7
2017-07-18T22:02:03.507Z,49.7
2017-07-18T22:07:03.436Z,49.7
2017-07-18T22:12:03.580Z,49.7
2017-07-18T22:22:03.982Z,49.3
2017-07-18T22:27:03.335Z,49.6
2017-07-18T22:32:03.841Z,49.6
2017-07-18T22:37:03.501Z,49.7
2017-07-18T22:42:03.159Z,49.7
2017-07-18T22:47:04.096Z,49.6
2017-07-18T22:52:03.363Z,49.5
2017-07-18T22:57:02.983Z,49.5
2017-07-18T23:02:03.518Z,49.6
2017-07-18T23:07:03.443Z,49.5
2017-07-18T23:12:03.207Z,49.3
2017-07-18T23:17:04.009Z,49.2
2017-07-18T23:22:03.486Z,49.2
2017-07-18T23:27:03.203Z,49.1
2017-07-18T23:32:04.083Z,49.2
2017-07-18T23:37:03.640Z,49.1
2017-07-18T23:42:03.498Z,49.0
2017-07-18T23:47:03.351Z,49.1
2017-07-18T23:52:03.179Z,48.9
2017-07-18T23:57:03.074Z,48.9
